sensor_id;sensor_type;location;lat;lon;timestamp;pressure;altitude;pressure_sealevel;temperature
58102;BMP280;52034;51.926;6.320;2023-07-24T00:00:51;100451.88;;;19.70
58102;BMP280;52034;51.926;6.320;2023-07-24T00:01:51;100455.41;;;19.70
58102;BMP280;52034;51.926;6.320;2023-07-24T00:02:52;100462.56;;;19.67
58102;BMP280;52034;51.926;6.320;2023-07-24T00:03:53;100455.47;;;19.64
58102;BMP280;52034;51.926;6.320;2023-07-24T00:04:56;100453.28;;;19.69
58102;BMP280;52034;51.926;6.320;2023-07-24T00:05:59;100454.03;;;19.65
58102;BMP280;52034;51.926;6.320;2023-07-24T00:07:00;100446.22;;;19.64
58102;BMP280;52034;51.926;6.320;2023-07-24T00:08:01;100449.75;;;19.66
58102;BMP280;52034;51.926;6.320;2023-07-24T00:09:02;100444.72;;;19.69
58102;BMP280;52034;51.926;6.320;2023-07-24T00:10:03;100446.19;;;19.68
58102;BMP280;52034;51.926;6.320;2023-07-24T00:11:07;100443.34;;;19.68
58102;BMP280;52034;51.926;6.320;2023-07-24T00:12:07;100445.50;;;19.65
58102;BMP280;52034;51.926;6.320;2023-07-24T00:13:08;100445.47;;;19.67
58102;BMP280;52034;51.926;6.320;2023-07-24T00:14:08;100450.47;;;19.67
58102;BMP280;52034;51.926;6.320;2023-07-24T00:15:09;100446.94;;;19.64
58102;BMP280;52034;51.926;6.320;2023-07-24T00:16:09;100436.22;;;19.67
58102;BMP280;52034;51.926;6.320;2023-07-24T00:17:10;100441.88;;;19.69
58102;BMP280;52034;51.926;6.320;2023-07-24T00:18:10;100439.09;;;19.67
58102;BMP280;52034;51.926;6.320;2023-07-24T00:19:10;100431.28;;;19.63
58102;BMP280;52034;51.926;6.320;2023-07-24T00:20:11;100435.47;;;19.70
58102;BMP280;52034;51.926;6.320;2023-07-24T00:21:12;100427.59;;;19.75
58102;BMP280;52034;51.926;6.320;2023-07-24T00:22:13;100431.88;;;19.74
58102;BMP280;52034;51.926;6.320;2023-07-24T00:23:13;100419.81;;;19.69
58102;BMP280;52034;51.926;6.320;2023-07-24T00:24:14;100428.38;;;19.69
58102;BMP280;52034;51.926;6.320;2023-07-24T00:25:14;100416.22;;;19.75
58102;BMP280;52034;51.926;6.320;2023-07-24T00:26:14;100422.63;;;19.75
58102;BMP280;52034;51.926;6.320;2023-07-24T00:27:15;100411.94;;;19.76
58102;BMP280;52034;51.926;6.320;2023-07-24T00:28:15;100414.81;;;19.74
58102;BMP280;52034;51.926;6.320;2023-07-24T00:29:15;100419.09;;;19.71
58102;BMP280;52034;51.926;6.320;2023-07-24T00:30:16;100421.25;;;19.72
58102;BMP280;52034;51.926;6.320;2023-07-24T00:31:17;100412.00;;;19.68
58102;BMP280;52034;51.926;6.320;2023-07-24T00:32:18;100412.72;;;19.68
58102;BMP280;52034;51.926;6.320;2023-07-24T00:33:18;100411.97;;;19.72
58102;BMP280;52034;51.926;6.320;2023-07-24T00:34:18;100415.53;;;19.70
58102;BMP280;52034;51.926;6.320;2023-07-24T00:35:19;100421.22;;;19.70
58102;BMP280;52034;51.926;6.320;2023-07-24T00:36:19;100417.66;;;19.74
58102;BMP280;52034;51.926;6.320;2023-07-24T00:37:19;100411.94;;;19.76
58102;BMP280;52034;51.926;6.320;2023-07-24T00:38:20;100412.66;;;19.76
58102;BMP280;52034;51.926;6.320;2023-07-24T00:39:22;100406.94;;;19.76
58102;BMP280;52034;51.926;6.320;2023-07-24T00:40:22;100411.91;;;19.80
58102;BMP280;52034;51.926;6.320;2023-07-24T00:41:23;100409.06;;;19.80
58102;BMP280;52034;51.926;6.320;2023-07-24T00:42:23;100409.06;;;19.78
58102;BMP280;52034;51.926;6.320;2023-07-24T00:43:23;100411.19;;;19.77
58102;BMP280;52034;51.926;6.320;2023-07-24T00:44:24;100406.22;;;19.76
58102;BMP280;52034;51.926;6.320;2023-07-24T00:45:25;100408.34;;;19.77
58102;BMP280;52034;51.926;6.320;2023-07-24T00:46:25;100414.03;;;19.79
58102;BMP280;52034;51.926;6.320;2023-07-24T00:47:26;100408.34;;;19.77
58102;BMP280;52034;51.926;6.320;2023-07-24T00:48:27;100409.09;;;19.76
58102;BMP280;52034;51.926;6.320;2023-07-24T00:49:28;100408.34;;;19.79
58102;BMP280;52034;51.926;6.320;2023-07-24T00:50:28;100408.34;;;19.77
58102;BMP280;52034;51.926;6.320;2023-07-24T00:51:29;100406.94;;;19.76
58102;BMP280;52034;51.926;6.320;2023-07-24T00:52:31;100404.81;;;19.75
58102;BMP280;52034;51.926;6.320;2023-07-24T00:53:32;100399.84;;;19.75
58102;BMP280;52034;51.926;6.320;2023-07-24T00:54:32;100406.22;;;19.78
58102;BMP280;52034;51.926;6.320;2023-07-24T00:55:33;100397.72;;;19.74
58102;BMP280;52034;51.926;6.320;2023-07-24T00:56:34;100386.28;;;19.76
58102;BMP280;52034;51.926;6.320;2023-07-24T00:57:34;100395.53;;;19.78
58102;BMP280;52034;51.926;6.320;2023-07-24T00:58:36;100389.06;;;19.82
58102;BMP280;52034;51.926;6.320;2023-07-24T00:59:37;100396.91;;;19.83
58102;BMP280;52034;51.926;6.320;2023-07-24T01:00:38;100382.00;;;19.81
58102;BMP280;52034;51.926;6.320;2023-07-24T01:01:41;100377.75;;;19.76
58102;BMP280;52034;51.926;6.320;2023-07-24T01:02:43;100369.22;;;19.74
58102;BMP280;52034;51.926;6.320;2023-07-24T01:03:45;100375.66;;;19.72
58102;BMP280;52034;51.926;6.320;2023-07-24T01:04:45;100371.31;;;19.77
58102;BMP280;52034;51.926;6.320;2023-07-24T01:05:47;100366.41;;;19.70
58102;BMP280;52034;51.926;6.320;2023-07-24T01:06:47;100376.38;;;19.73
58102;BMP280;52034;51.926;6.320;2023-07-24T01:07:48;100372.13;;;19.70
58102;BMP280;52034;51.926;6.320;2023-07-24T01:08:49;100371.41;;;19.71
58102;BMP280;52034;51.926;6.320;2023-07-24T01:09:49;100375.72;;;19.68
58102;BMP280;52034;51.926;6.320;2023-07-24T01:10:51;100362.19;;;19.65
58102;BMP280;52034;51.926;6.320;2023-07-24T01:12:04;100375.69;;;19.66
58102;BMP280;52034;51.926;6.320;2023-07-24T01:13:14;100372.84;;;19.68
58102;BMP280;52034;51.926;6.320;2023-07-24T01:16:06;100375.69;;;19.66
58102;BMP280;52034;51.926;6.320;2023-07-24T01:17:10;100365.78;;;19.63
58102;BMP280;52034;51.926;6.320;2023-07-24T01:18:16;100362.19;;;19.65
58102;BMP280;52034;51.926;6.320;2023-07-24T01:19:38;100355.78;;;19.64
58102;BMP280;52034;51.926;6.320;2023-07-24T01:20:47;100352.25;;;19.62
58102;BMP280;52034;51.926;6.320;2023-07-24T01:22:25;100354.38;;;19.61
58102;BMP280;52034;51.926;6.320;2023-07-24T01:24:52;100345.81;;;19.65
58102;BMP280;52034;51.926;6.320;2023-07-24T01:25:59;100349.41;;;19.64
58102;BMP280;52034;51.926;6.320;2023-07-24T01:26:59;100342.25;;;19.63
58102;BMP280;52034;51.926;6.320;2023-07-24T01:27:59;100353.63;;;19.67
58102;BMP280;52034;51.926;6.320;2023-07-24T01:29:00;100350.06;;;19.66
58102;BMP280;52034;51.926;6.320;2023-07-24T01:30:00;100348.63;;;19.67
58102;BMP280;52034;51.926;6.320;2023-07-24T01:31:00;100344.41;;;19.64
58102;BMP280;52034;51.926;6.320;2023-07-24T01:32:01;100351.50;;;19.65
58102;BMP280;52034;51.926;6.320;2023-07-24T01:33:01;100355.78;;;19.68
58102;BMP280;52034;51.926;6.320;2023-07-24T01:34:02;100357.84;;;19.74
58102;BMP280;52034;51.926;6.320;2023-07-24T01:35:03;100351.41;;;19.73
58102;BMP280;52034;51.926;6.320;2023-07-24T01:36:04;100352.88;;;19.72
58102;BMP280;52034;51.926;6.320;2023-07-24T01:37:04;100357.13;;;19.75
58102;BMP280;52034;51.926;6.320;2023-07-24T01:38:05;100345.72;;;19.73
58102;BMP280;52034;51.926;6.320;2023-07-24T01:39:06;100339.34;;;19.71
58102;BMP280;52034;51.926;6.320;2023-07-24T01:40:08;100350.03;;;19.70
58102;BMP280;52034;51.926;6.320;2023-07-24T01:41:09;100325.94;;;19.57
58102;BMP280;52034;51.926;6.320;2023-07-24T01:42:12;100336.53;;;19.65
58102;BMP280;52034;51.926;6.320;2023-07-24T01:43:13;100327.28;;;19.66
58102;BMP280;52034;51.926;6.320;2023-07-24T01:44:14;100331.53;;;19.67
58102;BMP280;52034;51.926;6.320;2023-07-24T01:45:14;100338.00;;;19.64
58102;BMP280;52034;51.926;6.320;2023-07-24T01:46:14;100341.56;;;19.64
58102;BMP280;52034;51.926;6.320;2023-07-24T01:47:15;100336.59;;;19.61
58102;BMP280;52034;51.926;6.320;2023-07-24T01:48:15;100333.78;;;19.59
58102;BMP280;52034;51.926;6.320;2023-07-24T01:49:15;100334.44;;;19.61
58102;BMP280;52034;51.926;6.320;2023-07-24T01:50:18;100330.19;;;19.60
58102;BMP280;52034;51.926;6.320;2023-07-24T01:51:18;100336.56;;;19.63
58102;BMP280;52034;51.926;6.320;2023-07-24T01:52:19;100332.34;;;19.58
58102;BMP280;52034;51.926;6.320;2023-07-24T01:53:19;100327.38;;;19.58
58102;BMP280;52034;51.926;6.320;2023-07-24T01:54:20;100318.84;;;19.54
58102;BMP280;52034;51.926;6.320;2023-07-24T01:55:20;100321.69;;;19.58
58102;BMP280;52034;51.926;6.320;2023-07-24T01:56:20;100311.00;;;19.57
58102;BMP280;52034;51.926;6.320;2023-07-24T01:57:21;100308.16;;;19.57
58102;BMP280;52034;51.926;6.320;2023-07-24T01:58:21;100313.13;;;19.56
58102;BMP280;52034;51.926;6.320;2023-07-24T01:59:21;100311.00;;;19.57
58102;BMP280;52034;51.926;6.320;2023-07-24T02:00:22;100316.00;;;19.54
58102;BMP280;52034;51.926;6.320;2023-07-24T02:01:31;100313.88;;;19.55
58102;BMP280;52034;51.926;6.320;2023-07-24T02:02:32;100313.13;;;19.56
58102;BMP280;52034;51.926;6.320;2023-07-24T02:03:32;100301.75;;;19.56
58102;BMP280;52034;51.926;6.320;2023-07-24T02:04:32;100317.41;;;19.57
58102;BMP280;52034;51.926;6.320;2023-07-24T02:05:33;100311.72;;;19.59
58102;BMP280;52034;51.926;6.320;2023-07-24T02:06:34;100317.34;;;19.63
58102;BMP280;52034;51.926;6.320;2023-07-24T02:07:34;100309.47;;;19.66
58102;BMP280;52034;51.926;6.320;2023-07-24T02:08:35;100307.38;;;19.64
58102;BMP280;52034;51.926;6.320;2023-07-24T02:09:35;100300.25;;;19.65
58102;BMP280;52034;51.926;6.320;2023-07-24T02:10:38;100305.94;;;19.65
58102;BMP280;52034;51.926;6.320;2023-07-24T02:11:39;100300.94;;;19.66
58102;BMP280;52034;51.926;6.320;2023-07-24T02:12:39;100301.69;;;19.60
58102;BMP280;52034;51.926;6.320;2023-07-24T02:13:39;100304.50;;;19.66
58102;BMP280;52034;51.926;6.320;2023-07-24T02:14:40;100305.94;;;19.65
58102;BMP280;52034;51.926;6.320;2023-07-24T02:15:40;100303.78;;;19.66
58102;BMP280;52034;51.926;6.320;2023-07-24T02:16:41;100309.47;;;19.66
58102;BMP280;52034;51.926;6.320;2023-07-24T02:17:41;100303.06;;;19.67
58102;BMP280;52034;51.926;6.320;2023-07-24T02:18:42;100303.06;;;19.67
58102;BMP280;52034;51.926;6.320;2023-07-24T02:19:43;100301.66;;;19.66
58102;BMP280;52034;51.926;6.320;2023-07-24T02:20:52;100307.38;;;19.64
58102;BMP280;52034;51.926;6.320;2023-07-24T02:21:53;100306.72;;;19.60
58102;BMP280;52034;51.926;6.320;2023-07-24T02:22:53;100300.97;;;19.62
58102;BMP280;52034;51.926;6.320;2023-07-24T02:23:54;100303.13;;;19.63
58102;BMP280;52034;51.926;6.320;2023-07-24T02:24:54;100297.41;;;19.63
58102;BMP280;52034;51.926;6.320;2023-07-24T02:25:54;100294.56;;;19.63
58102;BMP280;52034;51.926;6.320;2023-07-24T02:26:55;100293.84;;;19.63
58102;BMP280;52034;51.926;6.320;2023-07-24T02:27:55;100298.84;;;19.64
58102;BMP280;52034;51.926;6.320;2023-07-24T02:28:57;100290.97;;;19.65
58102;BMP280;52034;51.926;6.320;2023-07-24T02:29:58;100298.84;;;19.64
58102;BMP280;52034;51.926;6.320;2023-07-24T02:30:58;100298.81;;;19.66
58102;BMP280;52034;51.926;6.320;2023-07-24T02:32:00;100297.38;;;19.67
58102;BMP280;52034;51.926;6.320;2023-07-24T02:33:01;100294.53;;;19.67
58102;BMP280;52034;51.926;6.320;2023-07-24T02:34:01;100295.25;;;19.66
58102;BMP280;52034;51.926;6.320;2023-07-24T02:35:01;100294.53;;;19.65
58102;BMP280;52034;51.926;6.320;2023-07-24T02:36:02;100294.53;;;19.65
58102;BMP280;52034;51.926;6.320;2023-07-24T02:37:02;100286.75;;;19.64
58102;BMP280;52034;51.926;6.320;2023-07-24T02:38:03;100289.53;;;19.66
58102;BMP280;52034;51.926;6.320;2023-07-24T02:39:03;100293.84;;;19.65
58102;BMP280;52034;51.926;6.320;2023-07-24T02:40:04;100280.28;;;19.67
58102;BMP280;52034;51.926;6.320;2023-07-24T02:41:05;100284.56;;;19.66
58102;BMP280;52034;51.926;6.320;2023-07-24T02:42:05;100277.44;;;19.67
58102;BMP280;52034;51.926;6.320;2023-07-24T02:43:05;100277.47;;;19.65
58102;BMP280;52034;51.926;6.320;2023-07-24T02:44:06;100275.34;;;19.62
58102;BMP280;52034;51.926;6.320;2023-07-24T02:45:07;100285.28;;;19.67
58102;BMP280;52034;51.926;6.320;2023-07-24T02:46:10;100277.47;;;19.65
58102;BMP280;52034;51.926;6.320;2023-07-24T02:47:11;100278.22;;;19.64
58102;BMP280;52034;51.926;6.320;2023-07-24T02:48:11;100281.78;;;19.60
58102;BMP280;52034;51.926;6.320;2023-07-24T02:49:12;100280.31;;;19.61
58102;BMP280;52034;51.926;6.320;2023-07-24T02:50:12;100282.50;;;19.61
58102;BMP280;52034;51.926;6.320;2023-07-24T02:51:12;100283.19;;;19.61
58102;BMP280;52034;51.926;6.320;2023-07-24T02:52:13;100278.25;;;19.60
58102;BMP280;52034;51.926;6.320;2023-07-24T02:53:13;100279.63;;;19.61
58102;BMP280;52034;51.926;6.320;2023-07-24T02:54:13;100274.69;;;19.59
58102;BMP280;52034;51.926;6.320;2023-07-24T02:55:14;100279.66;;;19.59
58102;BMP280;52034;51.926;6.320;2023-07-24T02:56:14;100286.13;;;19.55
58102;BMP280;52034;51.926;6.320;2023-07-24T02:57:14;100286.13;;;19.55
58102;BMP280;52034;51.926;6.320;2023-07-24T02:58:15;100280.44;;;19.51
58102;BMP280;52034;51.926;6.320;2023-07-24T02:59:15;100281.88;;;19.50
58102;BMP280;52034;51.926;6.320;2023-07-24T03:00:17;100274.72;;;19.53
58102;BMP280;52034;51.926;6.320;2023-07-24T03:01:17;100284.72;;;19.52
58102;BMP280;52034;51.926;6.320;2023-07-24T03:02:17;100281.88;;;19.50
58102;BMP280;52034;51.926;6.320;2023-07-24T03:03:18;100281.88;;;19.52
58102;BMP280;52034;51.926;6.320;2023-07-24T03:04:18;100283.31;;;19.49
58102;BMP280;52034;51.926;6.320;2023-07-24T03:05:18;100284.72;;;19.48
58102;BMP280;52034;51.926;6.320;2023-07-24T03:06:19;100279.03;;;19.48
58102;BMP280;52034;51.926;6.320;2023-07-24T03:07:19;100280.47;;;19.49
58102;BMP280;52034;51.926;6.320;2023-07-24T03:08:21;100274.06;;;19.49
58102;BMP280;52034;51.926;6.320;2023-07-24T03:09:21;100266.22;;;19.47
58102;BMP280;52034;51.926;6.320;2023-07-24T03:10:23;100281.88;;;19.48
58102;BMP280;52034;51.926;6.320;2023-07-24T03:11:23;100273.34;;;19.50
58102;BMP280;52034;51.926;6.320;2023-07-24T03:12:24;100275.44;;;19.52
58102;BMP280;52034;51.926;6.320;2023-07-24T03:13:24;100271.88;;;19.53
58102;BMP280;52034;51.926;6.320;2023-07-24T03:14:24;100273.31;;;19.54
58102;BMP280;52034;51.926;6.320;2023-07-24T03:15:26;100271.16;;;19.53
58102;BMP280;52034;51.926;6.320;2023-07-24T03:16:26;100269.75;;;19.52
58102;BMP280;52034;51.926;6.320;2023-07-24T03:17:26;100270.44;;;19.54
58102;BMP280;52034;51.926;6.320;2023-07-24T03:18:27;100268.31;;;19.55
58102;BMP280;52034;51.926;6.320;2023-07-24T03:19:27;100267.59;;;19.58
58102;BMP280;52034;51.926;6.320;2023-07-24T03:20:28;100266.19;;;19.53
58102;BMP280;52034;51.926;6.320;2023-07-24T03:21:28;100273.31;;;19.54
58102;BMP280;52034;51.926;6.320;2023-07-24T03:22:28;100263.34;;;19.55
58102;BMP280;52034;51.926;6.320;2023-07-24T03:23:29;100264.00;;;19.56
58102;BMP280;52034;51.926;6.320;2023-07-24T03:24:29;100263.34;;;19.53
58102;BMP280;52034;51.926;6.320;2023-07-24T03:25:29;100265.47;;;19.53
58102;BMP280;52034;51.926;6.320;2023-07-24T03:26:31;100262.63;;;19.55
58102;BMP280;52034;51.926;6.320;2023-07-24T03:27:32;100257.66;;;19.53
58102;BMP280;52034;51.926;6.320;2023-07-24T03:28:32;100266.84;;;19.58
58102;BMP280;52034;51.926;6.320;2023-07-24T03:29:32;100267.56;;;19.56
58102;BMP280;52034;51.926;6.320;2023-07-24T03:30:33;100264.72;;;19.56
58102;BMP280;52034;51.926;6.320;2023-07-24T03:31:33;100268.28;;;19.57
58102;BMP280;52034;51.926;6.320;2023-07-24T03:32:36;100260.50;;;19.55
58102;BMP280;52034;51.926;6.320;2023-07-24T03:33:38;100258.31;;;19.56
58102;BMP280;52034;51.926;6.320;2023-07-24T03:34:38;100253.28;;;19.60
58102;BMP280;52034;51.926;6.320;2023-07-24T03:35:39;100255.47;;;19.56
58102;BMP280;52034;51.926;6.320;2023-07-24T03:36:39;100248.38;;;19.57
58102;BMP280;52034;51.926;6.320;2023-07-24T03:37:42;100234.16;;;19.55
58102;BMP280;52034;51.926;6.320;2023-07-24T03:38:43;100235.63;;;19.50
58102;BMP280;52034;51.926;6.320;2023-07-24T03:39:43;100238.44;;;19.52
58102;BMP280;52034;51.926;6.320;2023-07-24T03:40:43;100234.91;;;19.51
58102;BMP280;52034;51.926;6.320;2023-07-24T03:41:44;100238.44;;;19.52
58102;BMP280;52034;51.926;6.320;2023-07-24T03:42:44;100240.56;;;19.53
58102;BMP280;52034;51.926;6.320;2023-07-24T03:43:45;100237.75;;;19.51
58102;BMP280;52034;51.926;6.320;2023-07-24T03:44:45;100234.91;;;19.49
58102;BMP280;52034;51.926;6.320;2023-07-24T03:45:45;100230.63;;;19.50
58102;BMP280;52034;51.926;6.320;2023-07-24T03:46:46;100228.50;;;19.49
58102;BMP280;52034;51.926;6.320;2023-07-24T03:47:46;100227.78;;;19.50
58102;BMP280;52034;51.926;6.320;2023-07-24T03:48:46;100227.84;;;19.46
58102;BMP280;52034;51.926;6.320;2023-07-24T03:49:48;100230.69;;;19.46
58102;BMP280;52034;51.926;6.320;2023-07-24T03:50:50;100229.28;;;19.43
58102;BMP280;52034;51.926;6.320;2023-07-24T03:51:50;100230.72;;;19.40
58102;BMP280;52034;51.926;6.320;2023-07-24T03:52:51;100227.16;;;19.44
58102;BMP280;52034;51.926;6.320;2023-07-24T03:53:51;100226.44;;;19.45
58102;BMP280;52034;51.926;6.320;2023-07-24T03:54:52;100223.59;;;19.41
58102;BMP280;52034;51.926;6.320;2023-07-24T03:55:52;100224.38;;;19.38
58102;BMP280;52034;51.926;6.320;2023-07-24T03:56:53;100215.13;;;19.37
58102;BMP280;52034;51.926;6.320;2023-07-24T03:57:53;100215.88;;;19.34
58102;BMP280;52034;51.926;6.320;2023-07-24T03:58:53;100215.91;;;19.30
58102;BMP280;52034;51.926;6.320;2023-07-24T03:59:54;100213.06;;;19.28
58102;BMP280;52034;51.926;6.320;2023-07-24T04:00:54;100212.38;;;19.29
58102;BMP280;52034;51.926;6.320;2023-07-24T04:01:54;100215.97;;;19.22
58102;BMP280;52034;51.926;6.320;2023-07-24T04:02:55;100225.91;;;19.25
58102;BMP280;52034;51.926;6.320;2023-07-24T04:03:55;100212.41;;;19.23
58102;BMP280;52034;51.926;6.320;2023-07-24T04:04:56;100222.38;;;19.22
58102;BMP280;52034;51.926;6.320;2023-07-24T04:05:56;100214.53;;;19.25
58102;BMP280;52034;51.926;6.320;2023-07-24T04:06:56;100212.41;;;19.21
58102;BMP280;52034;51.926;6.320;2023-07-24T04:07:57;100208.91;;;19.21
58102;BMP280;52034;51.926;6.320;2023-07-24T04:08:57;100220.94;;;19.21
58102;BMP280;52034;51.926;6.320;2023-07-24T04:09:57;100223.84;;;19.19
58102;BMP280;52034;51.926;6.320;2023-07-24T04:10:57;100233.06;;;19.20
58102;BMP280;52034;51.926;6.320;2023-07-24T04:11:58;100230.22;;;19.20
58102;BMP280;52034;51.926;6.320;2023-07-24T04:12:58;100231.66;;;19.21
58102;BMP280;52034;51.926;6.320;2023-07-24T04:13:58;100225.97;;;19.21
58102;BMP280;52034;51.926;6.320;2023-07-24T04:14:59;100214.59;;;19.19
58102;BMP280;52034;51.926;6.320;2023-07-24T04:15:59;100219.56;;;19.18
58102;BMP280;52034;51.926;6.320;2023-07-24T04:16:59;100213.19;;;19.16
58102;BMP280;52034;51.926;6.320;2023-07-24T04:18:00;100218.16;;;19.19
58102;BMP280;52034;51.926;6.320;2023-07-24T04:19:00;100216.72;;;19.20
58102;BMP280;52034;51.926;6.320;2023-07-24T04:20:00;100227.34;;;19.22
58102;BMP280;52034;51.926;6.320;2023-07-24T04:21:01;100225.91;;;19.23
58102;BMP280;52034;51.926;6.320;2023-07-24T04:22:01;100222.34;;;19.24
58102;BMP280;52034;51.926;6.320;2023-07-24T04:23:02;100220.22;;;19.25
58102;BMP280;52034;51.926;6.320;2023-07-24T04:24:03;100224.47;;;19.26
58102;BMP280;52034;51.926;6.320;2023-07-24T04:25:03;100221.63;;;19.26
58102;BMP280;52034;51.926;6.320;2023-07-24T04:26:04;100225.91;;;19.25
58102;BMP280;52034;51.926;6.320;2023-07-24T04:27:04;100225.91;;;19.23
58102;BMP280;52034;51.926;6.320;2023-07-24T04:28:05;100227.38;;;19.20
58102;BMP280;52034;51.926;6.320;2023-07-24T04:29:06;100210.38;;;19.10
58102;BMP280;52034;51.926;6.320;2023-07-24T04:30:07;100223.84;;;19.19
58102;BMP280;52034;51.926;6.320;2023-07-24T04:31:07;100220.28;;;19.17
58102;BMP280;52034;51.926;6.320;2023-07-24T04:32:07;100222.44;;;19.16
58102;BMP280;52034;51.926;6.320;2023-07-24T04:33:08;100225.28;;;19.16
58102;BMP280;52034;51.926;6.320;2023-07-24T04:34:08;100217.44;;;19.19
58102;BMP280;52034;51.926;6.320;2023-07-24T04:35:08;100223.84;;;19.15
58102;BMP280;52034;51.926;6.320;2023-07-24T04:36:09;100221.00;;;19.15
58102;BMP280;52034;51.926;6.320;2023-07-24T04:37:09;100222.47;;;19.12
58102;BMP280;52034;51.926;6.320;2023-07-24T04:38:09;100216.78;;;19.08
58102;BMP280;52034;51.926;6.320;2023-07-24T04:39:10;100205.47;;;19.04
58102;BMP280;52034;51.926;6.320;2023-07-24T04:40:11;100221.81;;;19.06
58102;BMP280;52034;51.926;6.320;2023-07-24T04:41:11;100228.25;;;19.02
58102;BMP280;52034;51.926;6.320;2023-07-24T04:42:11;100212.63;;;18.95
58102;BMP280;52034;51.926;6.320;2023-07-24T04:43:12;100224.03;;;18.97
58102;BMP280;52034;51.926;6.320;2023-07-24T04:44:12;100229.72;;;18.97
58102;BMP280;52034;51.926;6.320;2023-07-24T04:45:12;100227.53;;;19.00
58102;BMP280;52034;51.926;6.320;2023-07-24T04:46:13;100222.56;;;19.00
58102;BMP280;52034;51.926;6.320;2023-07-24T04:47:13;100235.31;;;19.07
58102;BMP280;52034;51.926;6.320;2023-07-24T04:48:13;100236.72;;;19.10
58102;BMP280;52034;51.926;6.320;2023-07-24T04:49:14;100229.59;;;19.11
58102;BMP280;52034;51.926;6.320;2023-07-24T04:50:14;100231.03;;;19.08
58102;BMP280;52034;51.926;6.320;2023-07-24T04:51:14;100226.78;;;19.05
58102;BMP280;52034;51.926;6.320;2023-07-24T04:52:15;100224.69;;;19.00
58102;BMP280;52034;51.926;6.320;2023-07-24T04:53:15;100226.16;;;18.97
58102;BMP280;52034;51.926;6.320;2023-07-24T04:54:16;100225.47;;;18.94
58102;BMP280;52034;51.926;6.320;2023-07-24T04:55:16;100226.19;;;18.95
58102;BMP280;52034;51.926;6.320;2023-07-24T04:56:16;100221.22;;;18.91
58102;BMP280;52034;51.926;6.320;2023-07-24T04:57:16;100227.63;;;18.92
58102;BMP280;52034;51.926;6.320;2023-07-24T04:58:17;100235.44;;;18.91
58102;BMP280;52034;51.926;6.320;2023-07-24T04:59:17;100228.34;;;18.90
58102;BMP280;52034;51.926;6.320;2023-07-24T05:00:17;100234.13;;;18.80
58102;BMP280;52034;51.926;6.320;2023-07-24T05:01:18;100222.78;;;18.74
58102;BMP280;52034;51.926;6.320;2023-07-24T05:02:18;100219.19;;;18.80
58102;BMP280;52034;51.926;6.320;2023-07-24T05:03:18;100217.81;;;18.71
58102;BMP280;52034;51.926;6.320;2023-07-24T05:04:19;100210.72;;;18.70
58102;BMP280;52034;51.926;6.320;2023-07-24T05:05:20;100214.28;;;18.68
58102;BMP280;52034;51.926;6.320;2023-07-24T05:06:20;100212.91;;;18.59
58102;BMP280;52034;51.926;6.320;2023-07-24T05:07:20;100217.97;;;18.53
58102;BMP280;52034;51.926;6.320;2023-07-24T05:08:20;100215.13;;;18.49
58102;BMP280;52034;51.926;6.320;2023-07-24T05:09:21;100215.84;;;18.47
58102;BMP280;52034;51.926;6.320;2023-07-24T05:10:21;100223.59;;;18.55
58102;BMP280;52034;51.926;6.320;2023-07-24T05:11:21;100218.63;;;18.57
58102;BMP280;52034;51.926;6.320;2023-07-24T05:12:22;100221.47;;;18.55
58102;BMP280;52034;51.926;6.320;2023-07-24T05:13:22;100222.16;;;18.60
58102;BMP280;52034;51.926;6.320;2023-07-24T05:14:23;100224.28;;;18.63
58102;BMP280;52034;51.926;6.320;2023-07-24T05:15:23;100225.72;;;18.62
58102;BMP280;52034;51.926;6.320;2023-07-24T05:16:23;100234.91;;;18.65
58102;BMP280;52034;51.926;6.320;2023-07-24T05:17:23;100239.16;;;18.70
58102;BMP280;52034;51.926;6.320;2023-07-24T05:18:24;100234.88;;;18.71
58102;BMP280;52034;51.926;6.320;2023-07-24T05:19:24;100242.69;;;18.72
58102;BMP280;52034;51.926;6.320;2023-07-24T05:20:24;100237.72;;;18.73
58102;BMP280;52034;51.926;6.320;2023-07-24T05:21:25;100237.69;;;18.77
58102;BMP280;52034;51.926;6.320;2023-07-24T05:22:25;100238.38;;;18.77
58102;BMP280;52034;51.926;6.320;2023-07-24T05:23:25;100235.53;;;18.79
58102;BMP280;52034;51.926;6.320;2023-07-24T05:24:26;100236.22;;;18.86
58102;BMP280;52034;51.926;6.320;2023-07-24T05:25:26;100233.38;;;18.82
58102;BMP280;52034;51.926;6.320;2023-07-24T05:26:26;100231.25;;;18.84
58102;BMP280;52034;51.926;6.320;2023-07-24T05:27:27;100238.31;;;18.87
58102;BMP280;52034;51.926;6.320;2023-07-24T05:28:27;100245.47;;;18.84
58102;BMP280;52034;51.926;6.320;2023-07-24T05:29:28;100248.28;;;18.82
58102;BMP280;52034;51.926;6.320;2023-07-24T05:30:28;100239.75;;;18.82
58102;BMP280;52034;51.926;6.320;2023-07-24T05:31:29;100239.06;;;18.82
58102;BMP280;52034;51.926;6.320;2023-07-24T05:32:29;100229.16;;;18.79
58102;BMP280;52034;51.926;6.320;2023-07-24T05:33:30;100227.75;;;18.76
58102;BMP280;52034;51.926;6.320;2023-07-24T05:34:31;100228.47;;;18.72
58102;BMP280;52034;51.926;6.320;2023-07-24T05:35:31;100234.13;;;18.76
58102;BMP280;52034;51.926;6.320;2023-07-24T05:36:32;100237.69;;;18.79
58102;BMP280;52034;51.926;6.320;2023-07-24T05:37:32;100233.44;;;18.74
58102;BMP280;52034;51.926;6.320;2023-07-24T05:38:32;100225.66;;;18.70
58102;BMP280;52034;51.926;6.320;2023-07-24T05:39:32;100229.94;;;18.67
58102;BMP280;52034;51.926;6.320;2023-07-24T05:40:33;100223.59;;;18.63
58102;BMP280;52034;51.926;6.320;2023-07-24T05:41:33;100229.22;;;18.65
58102;BMP280;52034;51.926;6.320;2023-07-24T05:42:33;100229.97;;;18.63
58102;BMP280;52034;51.926;6.320;2023-07-24T05:43:38;100231.34;;;18.66
58102;BMP280;52034;51.926;6.320;2023-07-24T05:44:39;100234.91;;;18.67
58102;BMP280;52034;51.926;6.320;2023-07-24T05:45:39;100229.97;;;18.63
58102;BMP280;52034;51.926;6.320;2023-07-24T05:46:39;100240.63;;;18.61
58102;BMP280;52034;51.926;6.320;2023-07-24T05:47:40;100233.50;;;18.66
58102;BMP280;52034;51.926;6.320;2023-07-24T05:48:40;100241.34;;;18.61
58102;BMP280;52034;51.926;6.320;2023-07-24T05:49:41;100236.34;;;18.64